Terminal Aerodrome Forecast
Issued by NWS

Home | Current Version | Previous Version | Text Only | Print | Product List | Glossary On
Versions: 1 2 3 4 5 6 7 8 9 10 11 12 13 14 15 16 17 18 19 20 21 22 23 24 25 26 27 28
000
FTUS43 KSGF 200500
TAFJLN
TAF
KJLN 200523Z 2006/2106 VRB03KT 1/4SM FG VV002
     FM201900 18005KT 4SM BR BKN008
     FM202200 18005KT P6SM SCT030 SCT250
     FM210100 17006KT 1/2SM FG BKN025=

USA.gov is the U.S. government's official web portal to all federal, state and local government web resources and services.